createdAt,value
2018-01-10T00:01:53.776Z,100925.05
2018-01-10T00:04:26.230Z,100917.23
2018-01-10T00:06:58.687Z,100919.88
2018-01-10T00:09:31.114Z,100913.86
2018-01-10T00:12:05.085Z,100911.64
2018-01-10T00:14:37.977Z,100914.36
2018-01-10T00:17:10.401Z,100914.08
2018-01-10T00:19:43.564Z,100909.20
2018-01-10T00:22:16.393Z,100910.16
2018-01-10T00:24:48.969Z,100900.34
2018-01-10T00:27:22.632Z,100902.75
2018-01-10T00:29:55.450Z,100896.83
2018-01-10T00:32:28.141Z,100896.11
2018-01-10T00:35:00.756Z,100888.63
2018-01-10T00:37:33.224Z,100895.89
2018-01-10T00:40:05.689Z,100888.07
2018-01-10T00:42:39.108Z,100889.17
2018-01-10T00:45:12.757Z,100880.16
2018-01-10T00:47:45.391Z,100879.17
2018-01-10T00:50:17.989Z,100880.50
2018-01-10T00:52:50.797Z,100878.38
2018-01-10T00:55:23.343Z,100879.69
2018-01-10T00:57:55.748Z,100881.56
2018-01-10T01:00:29.000Z,100876.70
2018-01-10T01:03:02.516Z,100881.66
2018-01-10T01:05:35.327Z,100872.91
2018-01-10T01:08:07.724Z,100868.22
2018-01-10T01:10:40.084Z,100863.53
2018-01-10T01:13:12.764Z,100860.36
2018-01-10T01:15:45.277Z,100859.86
2018-01-10T01:18:17.846Z,100854.76
2018-01-10T01:20:51.095Z,100859.58
2018-01-10T01:23:23.991Z,100853.25
2018-01-10T01:25:56.492Z,100857.43
2018-01-10T01:28:29.704Z,100867.68
2018-01-10T01:31:03.446Z,100863.55
2018-01-10T01:33:37.160Z,100866.78
2018-01-10T01:36:11.252Z,100867.75
2018-01-10T01:38:44.749Z,100864.04
2018-01-10T01:41:17.497Z,100868.22
2018-01-10T01:43:50.699Z,100872.70
2018-01-10T01:46:23.497Z,100867.23
2018-01-10T01:48:55.832Z,100866.11
2018-01-10T01:51:28.308Z,100867.80
2018-01-10T01:54:00.789Z,100862.30
2018-01-10T01:56:33.241Z,100863.63
2018-01-10T01:59:05.650Z,100868.77
2018-01-10T02:01:39.043Z,100868.08
2018-01-10T02:04:11.515Z,100866.25
2018-01-10T02:06:43.843Z,100868.67
2018-01-10T02:09:17.081Z,100871.83
2018-01-10T02:11:49.391Z,100860.36
2018-01-10T02:14:21.826Z,100867.48
2018-01-10T02:16:54.610Z,100862.17
2018-01-10T02:19:27.642Z,100860.92
2018-01-10T02:22:00.498Z,100872.98
2018-01-10T02:24:33.597Z,100874.84
2018-01-10T02:27:06.672Z,100875.41
2018-01-10T02:29:39.140Z,100872.82
2018-01-10T02:32:11.790Z,100868.11
2018-01-10T02:34:44.231Z,100867.98
2018-01-10T02:37:16.657Z,100864.14
2018-01-10T02:39:49.108Z,100864.70
2018-01-10T02:42:37.782Z,100859.47
2018-01-10T02:45:11.085Z,100862.62
2018-01-10T02:47:44.383Z,100859.60
2018-01-10T02:50:16.737Z,100854.59
2018-01-10T02:52:49.162Z,100853.83
2018-01-10T02:55:22.160Z,100846.34
2018-01-10T02:57:55.885Z,100849.00
2018-01-10T03:00:28.602Z,100850.69
2018-01-10T03:03:00.993Z,100855.09
2018-01-10T03:05:33.382Z,100853.53
2018-01-10T03:08:05.832Z,100849.98
2018-01-10T03:10:38.213Z,100852.77
2018-01-10T03:13:10.704Z,100844.16
2018-01-10T03:15:43.139Z,100844.92
2018-01-10T03:18:15.631Z,100844.98
2018-01-10T03:20:48.106Z,100841.38
2018-01-10T03:23:20.684Z,100844.66
2018-01-10T03:25:53.820Z,100842.07
2018-01-10T03:28:27.519Z,100840.08
2018-01-10T03:31:00.444Z,100845.52
2018-01-10T03:33:34.855Z,100838.00
2018-01-10T03:36:07.972Z,100837.70
2018-01-10T03:38:41.121Z,100832.53
2018-01-10T03:41:13.681Z,100839.48
2018-01-10T03:43:46.201Z,100836.44
2018-01-10T03:46:18.889Z,100834.31
2018-01-10T03:48:52.153Z,100836.91
2018-01-10T03:51:25.460Z,100834.31
2018-01-10T03:53:58.173Z,100836.64
2018-01-10T03:56:31.307Z,100830.91
2018-01-10T03:59:04.628Z,100827.06
2018-01-10T04:01:37.346Z,100824.48
2018-01-10T04:04:09.669Z,100831.50
2018-01-10T04:06:42.197Z,100832.43
2018-01-10T04:09:14.571Z,100833.82
2018-01-10T04:11:46.924Z,100831.23
2018-01-10T04:14:19.372Z,100834.91
2018-01-10T04:16:51.800Z,100827.92
2018-01-10T04:19:24.176Z,100829.25
2018-01-10T04:21:57.289Z,100828.95
2018-01-10T04:24:30.042Z,100833.78
2018-01-10T04:27:02.510Z,100833.95
2018-01-10T04:29:34.908Z,100831.73
2018-01-10T04:32:07.276Z,100823.35
2018-01-10T04:34:39.755Z,100834.94
2018-01-10T04:37:12.137Z,100830.47
2018-01-10T04:39:45.500Z,100827.89
2018-01-10T04:42:19.382Z,100832.83
2018-01-10T04:44:51.748Z,100830.73
2018-01-10T04:47:24.368Z,100837.36
2018-01-10T04:49:56.761Z,100831.50
2018-01-10T04:52:29.376Z,100834.34
2018-01-10T04:55:01.812Z,100830.90
2018-01-10T04:57:34.363Z,100829.58
2018-01-10T05:00:06.765Z,100826.98
2018-01-10T05:02:39.235Z,100834.94
2018-01-10T05:05:11.847Z,100833.22
2018-01-10T05:07:44.355Z,100832.36
2018-01-10T05:10:17.564Z,100835.44
2018-01-10T05:12:50.552Z,100831.39
2018-01-10T05:15:23.664Z,100831.95
2018-01-10T05:17:56.126Z,100829.84
2018-01-10T05:20:30.112Z,100832.12
2018-01-10T05:23:03.484Z,100832.12
2018-01-10T05:25:36.254Z,100831.23
2018-01-10T05:28:08.700Z,100819.80
2018-01-10T05:30:41.195Z,100826.36
2018-01-10T05:33:13.577Z,100821.13
2018-01-10T05:35:46.256Z,100816.72
2018-01-10T05:38:18.900Z,100813.55
2018-01-10T05:40:51.560Z,100813.94
2018-01-10T05:43:23.981Z,100809.01
2018-01-10T05:45:56.386Z,100816.45
2018-01-10T05:48:29.644Z,100814.73
2018-01-10T05:51:03.080Z,100821.48
2018-01-10T05:53:36.412Z,100819.60
2018-01-10T05:56:09.132Z,100819.73
2018-01-10T05:58:42.261Z,100813.70
2018-01-10T06:01:15.663Z,100815.59
2018-01-10T06:03:48.210Z,100811.55
2018-01-10T06:06:21.162Z,100814.70
2018-01-10T06:08:54.906Z,100808.61
2018-01-10T06:11:27.596Z,100811.32
2018-01-10T06:14:00.828Z,100816.98
2018-01-10T06:16:34.326Z,100810.36
2018-01-10T06:19:07.060Z,100814.33
2018-01-10T06:21:40.193Z,100817.12
2018-01-10T06:24:13.211Z,100824.51
2018-01-10T06:26:45.784Z,100810.37
2018-01-10T06:29:18.251Z,100808.54
2018-01-10T06:31:50.976Z,100808.06
2018-01-10T06:34:24.295Z,100809.77
2018-01-10T06:36:58.050Z,100806.61
2018-01-10T06:39:30.971Z,100812.36
2018-01-10T06:42:03.599Z,100808.86
2018-01-10T06:44:36.956Z,100810.63
2018-01-10T06:47:09.629Z,100803.07
2018-01-10T06:49:42.088Z,100803.26
2018-01-10T06:52:14.550Z,100806.66
2018-01-10T06:54:47.184Z,100811.25
2018-01-10T06:57:21.396Z,100803.05
2018-01-10T06:59:54.624Z,100803.59
2018-01-10T07:02:27.247Z,100805.59
2018-01-10T07:04:59.755Z,100804.61
2018-01-10T07:07:34.032Z,100804.32
2018-01-10T07:10:07.952Z,100799.39
2018-01-10T07:12:40.522Z,100803.68
2018-01-10T07:15:12.977Z,100798.88
2018-01-10T07:17:46.138Z,100801.59
2018-01-10T07:20:19.240Z,100806.64
2018-01-10T07:22:53.426Z,100808.84
2018-01-10T07:25:26.369Z,100806.33
2018-01-10T07:27:58.909Z,100812.04
2018-01-10T07:30:33.608Z,100813.30
2018-01-10T07:33:07.346Z,100812.76
2018-01-10T07:35:40.037Z,100815.05
2018-01-10T07:38:13.109Z,100816.81
2018-01-10T07:40:45.722Z,100824.42
2018-01-10T07:43:18.198Z,100822.19
2018-01-10T07:45:50.968Z,100822.53
2018-01-10T07:48:23.698Z,100823.51
2018-01-10T07:50:56.236Z,100819.02
2018-01-10T07:53:29.487Z,100823.52
2018-01-10T07:56:02.324Z,100814.96
2018-01-10T07:58:34.916Z,100821.98
2018-01-10T08:01:08.351Z,100825.55
2018-01-10T08:03:41.137Z,100823.94
2018-01-10T08:06:13.660Z,100824.02
2018-01-10T08:08:46.244Z,100821.23
2018-01-10T08:11:19.872Z,100827.45
2018-01-10T08:13:53.176Z,100827.59
2018-01-10T08:16:25.605Z,100826.84
2018-01-10T08:18:58.266Z,100831.11
2018-01-10T08:21:32.360Z,100830.55
2018-01-10T08:24:05.087Z,100836.83
2018-01-10T08:26:37.981Z,100833.34
2018-01-10T08:29:10.365Z,100835.78
2018-01-10T08:31:42.818Z,100838.87
2018-01-10T08:34:15.424Z,100843.40
2018-01-10T08:36:48.850Z,100840.52
2018-01-10T08:39:21.507Z,100842.20
2018-01-10T08:41:54.841Z,100845.72
2018-01-10T08:44:27.680Z,100846.41
2018-01-10T08:47:00.164Z,100847.51
2018-01-10T08:49:32.620Z,100852.53
2018-01-10T08:53:51.479Z,100850.83
2018-01-10T08:56:17.798Z,100848.68
2018-01-10T08:58:44.067Z,100854.79
2018-01-10T09:01:11.089Z,100853.26
2018-01-10T09:03:37.380Z,100857.86
2018-01-10T09:06:03.668Z,100852.91
2018-01-10T09:08:29.951Z,100860.67
2018-01-10T09:10:56.257Z,100862.44
2018-01-10T09:13:23.288Z,100857.41
2018-01-10T09:15:49.572Z,100859.86
2018-01-10T09:18:15.879Z,100853.85
2018-01-10T09:20:42.892Z,100856.08
2018-01-10T09:23:09.169Z,100857.48
2018-01-10T09:25:36.194Z,100855.58
2018-01-10T09:28:02.479Z,100856.83
2018-01-10T09:30:28.753Z,100855.28
2018-01-10T09:32:55.032Z,100853.05
2018-01-10T09:35:22.049Z,100860.27
2018-01-10T09:37:48.356Z,100858.08
2018-01-10T09:40:14.672Z,100861.45
2018-01-10T09:42:40.972Z,100864.11
2018-01-10T09:45:07.271Z,100860.20
2018-01-10T09:47:33.559Z,100861.81
2018-01-10T09:50:00.614Z,100861.73
2018-01-10T09:52:27.635Z,100866.77
2018-01-10T09:54:53.955Z,100862.64
2018-01-10T09:57:20.244Z,100866.98
2018-01-10T09:59:46.524Z,100869.00
2018-01-10T10:02:12.817Z,100864.95
2018-01-10T10:04:39.836Z,100871.73
2018-01-10T10:07:06.114Z,100867.43
2018-01-10T10:09:32.411Z,100866.93
2018-01-10T10:11:58.667Z,100865.39
2018-01-10T10:14:25.680Z,100870.09
2018-01-10T10:16:51.980Z,100869.73
2018-01-10T10:19:18.269Z,100872.03
2018-01-10T10:21:44.541Z,100870.34
2018-01-10T10:24:10.840Z,100868.77
2018-01-10T10:26:37.117Z,100868.77
2018-01-10T10:29:03.375Z,100867.77
2018-01-10T10:31:29.657Z,100860.58
2018-01-10T10:33:56.674Z,100863.77
2018-01-10T10:36:23.012Z,100868.84
2018-01-10T10:38:49.299Z,100865.06
2018-01-10T10:41:15.569Z,100861.33
2018-01-10T10:43:41.872Z,100864.99
2018-01-10T10:46:08.157Z,100870.56
2018-01-10T10:48:34.424Z,100863.38
2018-01-10T10:51:01.432Z,100863.92
2018-01-10T10:53:27.735Z,100853.72
2018-01-10T10:55:54.001Z,100857.20
2018-01-10T10:58:20.285Z,100857.05
2018-01-10T11:00:47.328Z,100852.16
2018-01-10T11:03:14.329Z,100852.52
2018-01-10T11:05:40.652Z,100845.95
2018-01-10T11:08:06.969Z,100844.41
2018-01-10T11:10:33.235Z,100841.03
2018-01-10T11:12:59.515Z,100846.42
2018-01-10T11:15:26.561Z,100842.87
2018-01-10T11:17:52.852Z,100842.69
2018-01-10T11:20:19.137Z,100838.13
2018-01-10T11:22:45.423Z,100842.94
2018-01-10T11:25:11.701Z,100843.37
2018-01-10T11:27:38.002Z,100843.84
2018-01-10T11:30:04.317Z,100844.27
2018-01-10T11:32:30.609Z,100835.76
2018-01-10T11:34:57.642Z,100833.19
2018-01-10T11:37:23.952Z,100833.73
2018-01-10T11:39:50.221Z,100831.45
2018-01-10T11:42:16.480Z,100822.99
2018-01-10T11:44:43.516Z,100818.84
2018-01-10T11:47:09.797Z,100821.19
2018-01-10T11:49:36.070Z,100815.75
2018-01-10T11:52:02.372Z,100816.16
2018-01-10T11:54:28.650Z,100812.63
2018-01-10T11:56:54.950Z,100811.97
2018-01-10T11:59:21.250Z,100811.52
2018-01-10T12:01:48.264Z,100809.41
2018-01-10T12:04:14.573Z,100808.50
2018-01-10T12:06:40.859Z,100812.84
2018-01-10T12:09:07.896Z,100808.92
2018-01-10T12:11:34.173Z,100804.30
2018-01-10T12:14:00.473Z,100809.57
2018-01-10T12:16:26.822Z,100807.28
2018-01-10T12:18:53.846Z,100804.55
2018-01-10T12:21:20.144Z,100803.30
2018-01-10T12:23:46.429Z,100795.66
2018-01-10T12:26:12.700Z,100802.68
2018-01-10T12:28:38.984Z,100793.28
2018-01-10T12:31:05.260Z,100803.77
2018-01-10T12:33:32.288Z,100799.37
2018-01-10T12:35:58.570Z,100802.32
2018-01-10T12:38:24.860Z,100797.41
2018-01-10T12:40:51.145Z,100796.44
2018-01-10T12:43:17.425Z,100790.98
2018-01-10T12:45:43.712Z,100782.36
2018-01-10T12:48:10.029Z,100785.66
2018-01-10T12:50:36.313Z,100785.31
2018-01-10T12:53:02.611Z,100783.37
2018-01-10T12:55:28.896Z,100790.91
2018-01-10T12:57:55.157Z,100787.53
2018-01-10T13:00:22.192Z,100783.69
2018-01-10T13:02:48.476Z,100779.37
2018-01-10T13:05:14.739Z,100783.91
2018-01-10T13:07:41.025Z,100780.85
2018-01-10T13:10:07.324Z,100787.89
2018-01-10T13:12:33.623Z,100788.68
2018-01-10T13:14:59.895Z,100783.15
2018-01-10T13:17:26.182Z,100783.22
2018-01-10T13:19:52.497Z,100783.41
2018-01-10T13:22:19.538Z,100777.34
2018-01-10T13:24:46.564Z,100778.66
2018-01-10T13:27:12.856Z,100780.75
2018-01-10T13:29:39.145Z,100785.98
2018-01-10T13:32:05.426Z,100781.82
2018-01-10T13:34:31.704Z,100788.10
2018-01-10T13:36:57.985Z,100788.53
2018-01-10T13:39:24.296Z,100792.99
2018-01-10T13:41:50.605Z,100799.37
2018-01-10T13:44:16.885Z,100792.02
2018-01-10T13:46:43.912Z,100794.31
2018-01-10T13:49:10.201Z,100799.56
2018-01-10T13:51:36.476Z,100793.42
2018-01-10T13:54:02.766Z,100795.39
2018-01-10T13:56:29.052Z,100791.52
2018-01-10T13:58:55.343Z,100791.73
2018-01-10T14:01:21.622Z,100797.27
2018-01-10T14:03:47.926Z,100801.96
2018-01-10T14:06:14.205Z,100801.92
2018-01-10T14:08:41.220Z,100806.63
2018-01-10T14:11:07.516Z,100806.27
2018-01-10T14:13:33.791Z,100808.92
2018-01-10T14:16:00.059Z,100809.41
2018-01-10T14:18:26.367Z,100808.70
2018-01-10T14:20:52.672Z,100810.24
2018-01-10T14:23:18.968Z,100809.48
2018-01-10T14:25:46.065Z,100811.65
2018-01-10T14:28:12.350Z,100816.61
2018-01-10T14:30:38.628Z,100808.16
2018-01-10T14:33:04.950Z,100807.59
2018-01-10T14:35:31.984Z,100819.08
2018-01-10T14:37:58.274Z,100820.34
2018-01-10T14:40:24.575Z,100814.24
2018-01-10T14:42:50.869Z,100817.68
2018-01-10T14:45:17.154Z,100819.48
2018-01-10T14:47:43.480Z,100820.59
2018-01-10T14:50:10.143Z,100819.08
2018-01-10T14:52:36.423Z,100819.63
2018-01-10T14:55:03.091Z,100824.11
2018-01-10T14:57:30.136Z,100819.55
2018-01-10T14:59:56.424Z,100821.45
2018-01-10T15:02:22.760Z,100825.30
2018-01-10T15:04:49.032Z,100820.81
2018-01-10T15:07:15.420Z,100819.55
2018-01-10T15:09:41.727Z,100826.05
2018-01-10T15:12:08.744Z,100824.41
2018-01-10T15:14:35.092Z,100830.48
2018-01-10T15:17:01.420Z,100830.41
2018-01-10T15:19:28.053Z,100833.50
2018-01-10T15:21:54.344Z,100842.72
2018-01-10T15:24:20.654Z,100832.99
2018-01-10T15:26:46.939Z,100845.38
2018-01-10T15:29:13.245Z,100853.11
2018-01-10T15:31:39.566Z,100843.58
2018-01-10T15:34:06.617Z,100850.84
2018-01-10T15:36:33.667Z,100851.48
2018-01-10T15:39:00.754Z,100851.23
2018-01-10T15:41:27.069Z,100855.00
2018-01-10T15:43:54.105Z,100851.08
2018-01-10T15:46:20.422Z,100860.13
2018-01-10T15:48:46.737Z,100857.11
2018-01-10T15:51:13.053Z,100861.02
2018-01-10T15:53:39.390Z,100864.31
2018-01-10T15:56:05.745Z,100859.28
2018-01-10T15:58:32.077Z,100867.05
2018-01-10T16:00:58.373Z,100870.25
2018-01-10T16:03:25.419Z,100869.98
2018-01-10T16:05:52.458Z,100872.58
2018-01-10T16:08:18.768Z,100872.89
2018-01-10T16:10:45.062Z,100879.22
2018-01-10T16:13:11.360Z,100882.50
2018-01-10T16:15:37.674Z,100883.91
2018-01-10T16:18:03.957Z,100889.35
2018-01-10T16:20:30.975Z,100891.19
2018-01-10T16:22:57.284Z,100897.27
2018-01-10T16:25:23.593Z,100891.26
2018-01-10T16:27:49.886Z,100892.98
2018-01-10T16:30:16.187Z,100899.23
2018-01-10T16:32:42.552Z,100901.83
2018-01-10T16:35:08.892Z,100906.79
2018-01-10T16:37:35.194Z,100899.86
2018-01-10T16:40:01.938Z,100896.62
2018-01-10T16:42:28.259Z,100911.90
2018-01-10T16:44:54.596Z,100912.26
2018-01-10T16:47:20.909Z,100914.31
2018-01-10T16:49:47.952Z,100919.50
2018-01-10T16:52:14.990Z,100919.84
2018-01-10T16:54:42.024Z,100923.80
2018-01-10T16:57:08.313Z,100917.97
2018-01-10T16:59:35.355Z,100924.41
2018-01-10T17:02:02.412Z,100922.45
2018-01-10T17:04:29.440Z,100926.96
2018-01-10T17:06:56.501Z,100927.78
2018-01-10T17:09:22.811Z,100930.05
2018-01-10T17:11:49.116Z,100925.39
2018-01-10T17:14:15.406Z,100927.66
2018-01-10T17:16:42.473Z,100927.66
2018-01-10T17:19:09.534Z,100931.06
2018-01-10T17:21:36.592Z,100934.84
2018-01-10T17:24:02.887Z,100935.63
2018-01-10T17:26:29.198Z,100933.05
2018-01-10T17:28:55.497Z,100939.55
2018-01-10T17:31:21.884Z,100937.81
2018-01-10T17:33:48.202Z,100942.70
2018-01-10T17:36:14.499Z,100942.34
2018-01-10T17:38:41.539Z,100947.78
2018-01-10T17:41:08.591Z,100944.59
2018-01-10T17:43:35.632Z,100948.92
2018-01-10T17:46:01.945Z,100948.69
2018-01-10T17:48:28.904Z,100947.36
2018-01-10T17:50:56.190Z,100958.14
2018-01-10T17:53:23.242Z,100951.14
2018-01-10T17:55:50.325Z,100955.42
2018-01-10T17:58:16.638Z,100953.48
2018-01-10T18:00:43.738Z,100952.57
2018-01-10T18:03:10.078Z,100966.23
2018-01-10T18:05:36.458Z,100964.96
2018-01-10T18:08:03.505Z,100964.45
2018-01-10T18:10:29.822Z,100965.36
2018-01-10T18:12:56.135Z,100968.98
2018-01-10T18:15:22.413Z,100972.83
2018-01-10T18:17:48.706Z,100973.05
2018-01-10T18:20:15.089Z,100970.25
2018-01-10T18:22:41.359Z,100976.32
2018-01-10T18:25:07.659Z,100981.69
2018-01-10T18:27:33.938Z,100976.37
2018-01-10T18:30:00.287Z,100982.19
2018-01-10T18:32:26.623Z,100975.98
2018-01-10T18:34:52.905Z,100979.41
2018-01-10T18:37:19.940Z,100986.24
2018-01-10T18:39:46.211Z,100985.45
2018-01-10T18:42:12.548Z,100987.23
2018-01-10T18:44:38.830Z,100987.33
2018-01-10T18:47:05.210Z,100988.14
2018-01-10T18:49:32.276Z,100993.61
2018-01-10T18:51:58.560Z,100998.07
2018-01-10T18:54:24.912Z,100990.78
2018-01-10T18:56:51.981Z,100997.98
2018-01-10T18:59:19.071Z,101000.20
2018-01-10T19:01:45.372Z,101005.93
2018-01-10T19:04:12.478Z,101007.52
2018-01-10T19:06:38.805Z,101005.23
2018-01-10T19:09:05.110Z,101002.97
2018-01-10T19:11:31.421Z,101004.64
2018-01-10T19:14:23.164Z,101003.45
2018-01-10T19:16:49.445Z,101002.49
2018-01-10T19:19:15.744Z,101006.38
2018-01-10T19:21:42.027Z,101009.05
2018-01-10T19:24:08.427Z,101011.91
2018-01-10T19:26:34.799Z,101010.13
2018-01-10T19:29:01.494Z,101004.98
2018-01-10T19:31:27.792Z,101011.78
2018-01-10T19:33:54.078Z,101002.48
2018-01-10T19:36:20.369Z,101005.06
2018-01-10T19:38:46.672Z,101004.72
2018-01-10T19:41:12.964Z,101008.06
2018-01-10T19:43:40.004Z,101008.52
2018-01-10T19:46:07.060Z,101008.29
2018-01-10T19:48:34.088Z,101004.64
2018-01-10T19:51:00.439Z,101004.94
2018-01-10T19:53:26.758Z,101012.34
2018-01-10T19:55:53.664Z,101016.28
2018-01-10T19:58:24.864Z,101015.13
2018-01-10T20:00:51.168Z,101019.16
2018-01-10T20:03:17.511Z,101026.03
2018-01-10T20:05:43.847Z,101023.30
2018-01-10T20:08:10.122Z,101030.48
2018-01-10T20:10:37.153Z,101040.58
2018-01-10T20:13:03.453Z,101037.40
2018-01-10T20:15:29.757Z,101041.05
2018-01-10T20:17:56.821Z,101040.25
2018-01-10T20:20:23.142Z,101036.56
2018-01-10T20:22:50.171Z,101047.39
2018-01-10T20:25:16.464Z,101045.12
2018-01-10T20:27:42.796Z,101052.77
2018-01-10T20:30:09.105Z,101048.31
2018-01-10T20:32:36.831Z,101056.51
2018-01-10T20:35:03.130Z,101051.60
2018-01-10T20:37:29.443Z,101049.48
2018-01-10T20:39:56.685Z,101057.97
2018-01-10T20:42:23.705Z,101061.22
2018-01-10T20:44:57.059Z,101055.45
2018-01-10T20:47:23.342Z,101061.76
2018-01-10T20:49:49.612Z,101065.47
2018-01-10T20:52:16.654Z,101064.02
2018-01-10T20:54:42.933Z,101067.66
2018-01-10T20:57:09.233Z,101066.37
2018-01-10T20:59:36.252Z,101067.59
2018-01-10T21:02:02.558Z,101072.77
2018-01-10T21:04:28.853Z,101077.22
2018-01-10T21:06:55.888Z,101084.66
2018-01-10T21:09:22.192Z,101085.42
2018-01-10T21:11:48.473Z,101078.65
2018-01-10T21:14:15.537Z,101085.58
2018-01-10T21:16:42.552Z,101081.83
2018-01-10T21:19:08.892Z,101074.60
2018-01-10T21:21:35.217Z,101074.00
2018-01-10T21:24:01.505Z,101079.22
2018-01-10T21:26:27.796Z,101080.41
2018-01-10T21:28:54.112Z,101079.02
2018-01-10T21:31:20.396Z,101085.16
2018-01-10T21:33:47.444Z,101088.91
2018-01-10T21:36:14.490Z,101088.80
2018-01-10T21:38:40.775Z,101082.83
2018-01-10T21:41:07.076Z,101083.39
2018-01-10T21:43:34.114Z,101079.70
2018-01-10T21:46:00.420Z,101083.03
2018-01-10T21:48:26.738Z,101088.94
2018-01-10T21:50:53.062Z,101088.80
2018-01-10T21:53:19.356Z,101091.13
2018-01-10T21:55:45.673Z,101089.86
2018-01-10T21:58:12.036Z,101087.20
2018-01-10T22:00:39.196Z,101092.28
2018-01-10T22:03:05.530Z,101094.34
2018-01-10T22:05:32.553Z,101092.48
2018-01-10T22:07:58.865Z,101098.52
2018-01-10T22:10:25.188Z,101092.14
2018-01-10T22:12:51.498Z,101095.26
2018-01-10T22:15:18.556Z,101101.06
2018-01-10T22:17:44.911Z,101105.58
2018-01-10T22:20:11.190Z,101106.14
2018-01-10T22:22:37.510Z,101104.87
2018-01-10T22:25:03.770Z,101109.29
2018-01-10T22:27:30.097Z,101109.12
2018-01-10T22:29:56.388Z,101106.99
2018-01-10T22:32:22.678Z,101109.25
2018-01-10T22:34:49.032Z,101114.32
2018-01-10T22:37:16.078Z,101110.27
2018-01-10T22:39:42.366Z,101121.91
2018-01-10T22:42:08.667Z,101116.97
2018-01-10T22:44:34.940Z,101120.16
2018-01-10T22:47:01.729Z,101122.44
2018-01-10T22:49:28.018Z,101123.00
2018-01-10T22:51:54.318Z,101118.52
2018-01-10T22:54:20.637Z,101122.94
2018-01-10T22:56:47.700Z,101122.63
2018-01-10T22:59:14.786Z,101120.34
2018-01-10T23:01:41.064Z,101112.09
2018-01-10T23:04:07.764Z,101114.44
2018-01-10T23:06:34.044Z,101117.66
2018-01-10T23:09:00.361Z,101111.83
2018-01-10T23:11:26.661Z,101108.05
2018-01-10T23:13:52.942Z,101112.95
2018-01-10T23:16:19.237Z,101111.78
2018-01-10T23:18:45.521Z,101114.80
2018-01-10T23:21:11.812Z,101113.37
2018-01-10T23:23:38.123Z,101108.49
2018-01-10T23:26:05.149Z,101114.10
2018-01-10T23:28:31.696Z,101116.45
2018-01-10T23:30:58.007Z,101116.59
2018-01-10T23:33:24.292Z,101115.26
2018-01-10T23:35:50.635Z,101118.44
2018-01-10T23:38:16.960Z,101117.24
2018-01-10T23:40:43.990Z,101127.27
2018-01-10T23:43:11.041Z,101127.92
2018-01-10T23:45:37.328Z,101129.24
2018-01-10T23:48:03.652Z,101130.59
2018-01-10T23:50:29.948Z,101123.52
2018-01-10T23:52:56.245Z,101136.66
2018-01-10T23:55:22.520Z,101133.84
2018-01-10T23:57:48.792Z,101135.83
